Terminal Aerodrome Forecast
Issued by NWS Blacksburg, VA

Current Version | Previous Version | Text Only | Print | Product List | Glossary Off
Versions: 1 2 3 4 5 6 7 8 9 10 11 12 13 14 15 16 17 18 19 20 21 22 23 24 25 26 27 28 29 30 31 32 33 34 35 36 37 38

000
FTUS41 KRNK 212320
TAFBLF
TAF
KBLF 212320Z 2200/2224 32011KT 6SM -SHRA BKN005 OVC010
      TEMPO 2200/2203 3SM -RA BR OVC002
     FM220800 30010KT 6SM BR BKN007
      TEMPO 2208/2212 3SM BR
     FM221400 31011KT P6SM SCT030
     FM221800 28010G20KT P6SM SKC=

USA.gov is the U.S. government's official web portal to all federal, state and local government web resources and services.